地図

経路データ

SID SEASON NUMBER BASIN SUBBASIN NAME ISO_TIME NATURE LAT LON WMO_WIND WMO_PRES WMO_AGENCY TRACK_TYPE DIST2LAND LANDFALL IFLAG USA_AGENCY USA_ATCF_ID USA_LAT USA_LON USA_RECORD USA_STATUS USA_WIND USA_PRES USA_SSHS USA_R34_NE USA_R34_SE USA_R34_SW USA_R34_NW USA_R50_NE USA_R50_SE USA_R50_SW USA_R50_NW USA_R64_NE USA_R64_SE USA_R64_SW USA_R64_NW USA_POCI USA_ROCI USA_RMW USA_EYE TOKYO_LAT TOKYO_LON TOKYO_GRADE TOKYO_WIND TOKYO_PRES TOKYO_R50_DIR TOKYO_R50_LONG TOKYO_R50_SHORT TOKYO_R30_DIR TOKYO_R30_LONG TOKYO_R30_SHORT TOKYO_LAND CMA_LAT CMA_LON CMA_CAT CMA_WIND CMA_PRES HKO_LAT HKO_LON HKO_CAT HKO_WIND HKO_PRES NEWDELHI_LAT NEWDELHI_LON NEWDELHI_GRADE NEWDELHI_WIND NEWDELHI_PRES NEWDELHI_CI NEWDELHI_DP NEWDELHI_POCI REUNION_LAT REUNION_LON REUNION_TYPE REUNION_WIND REUNION_PRES REUNION_TNUM REUNION_CI REUNION_RMW REUNION_R34_NE REUNION_R34_SE REUNION_R34_SW REUNION_R34_NW REUNION_R50_NE REUNION_R50_SE REUNION_R50_SW REUNION_R50_NW REUNION_R64_NE REUNION_R64_SE REUNION_R64_SW REUNION_R64_NW BOM_LAT BOM_LON BOM_TYPE BOM_WIND BOM_PRES BOM_TNUM BOM_CI BOM_RMW BOM_R34_NE BOM_R34_SE BOM_R34_SW BOM_R34_NW BOM_R50_NE BOM_R50_SE BOM_R50_SW BOM_R50_NW BOM_R64_NE BOM_R64_SE BOM_R64_SW BOM_R64_NW BOM_ROCI BOM_POCI BOM_EYE BOM_POS_METHOD BOM_PRES_METHOD NADI_LAT NADI_LON NADI_CAT NADI_WIND NADI_PRES WELLINGTON_LAT WELLINGTON_LON WELLINGTON_WIND WELLINGTON_PRES DS824_LAT DS824_LON DS824_STAGE DS824_WIND DS824_PRES TD9636_LAT TD9636_LON TD9636_STAGE TD9636_WIND TD9636_PRES TD9635_LAT TD9635_LON TD9635_WIND TD9635_PRES TD9635_ROCI NEUMANN_LAT NEUMANN_LON NEUMANN_CLASS NEUMANN_WIND NEUMANN_PRES MLC_LAT MLC_LON MLC_CLASS MLC_WIND MLC_PRES USA_GUST BOM_GUST BOM_GUST_PER REUNION_GUST REUNION_GUST_PER USA_SEAHGT USA_SEARAD_NE USA_SEARAD_SE USA_SEARAD_SW USA_SEARAD_NW STORM_SPEED STORM_DIR
1930248N16150 1930 44 WP MM NOT_NAMED 1930-09-05 10:00:00 NR 16.4000 150.000 main 2091 2087 __________O___ -1 16.4000 150.000 7 8 278
1930248N16150 1930 44 WP MM NOT_NAMED 1930-09-05 12:00:00 NR 16.4376 149.714 main 2087 2086 __________P___ -1 16.4376 149.714 7 8 278
1930248N16150 1930 44 WP MM NOT_NAMED 1930-09-05 15:00:00 NR 16.4982 149.285 main 2093 2090 __________P___ -1 16.4982 149.285 7 8 279
1930248N16150 1930 44 WP MM NOT_NAMED 1930-09-05 18:00:00 NR 16.5709 148.859 main 2101 2098 __________P___ -1 16.5709 148.859 7 8 282
1930248N16150 1930 44 WP MM NOT_NAMED 1930-09-05 21:00:00 NR 16.6634 148.439 main 2108 2108 __________P___ -1 16.6634 148.439 7 8 284
1930248N16150 1930 44 WP MM NOT_NAMED 1930-09-05 22:00:00 NR 16.7000 148.300 main 2108 2107 __________O___ -1 16.7000 148.300 7 8 287
1930248N16150 1930 44 WP MM NOT_NAMED 1930-09-06 00:00:00 NR 16.7832 148.025 main 2118 2117 __________P___ -1 16.7832 148.025 7 8 290
1930248N16150 1930 44 WP MM NOT_NAMED 1930-09-06 03:00:00 NR 16.9330 147.618 main 2128 2115 __________P___ -1 16.9330 147.618 7 8 293
1930248N16150 1930 44 WP MM NOT_NAMED 1930-09-06 06:00:00 NR 17.1131 147.220 main 2115 2081 __________P___ -1 17.1131 147.220 7 9 297
1930248N16150 1930 44 WP MM NOT_NAMED 1930-09-06 09:00:00 NR 17.3232 146.829 main 2081 2067 __________P___ -1 17.3232 146.829 7 9 300
1930248N16150 1930 44 WP MM NOT_NAMED 1930-09-06 10:00:00 NR 17.4000 146.700 main 2067 2047 __________O___ -1 17.4000 146.700 7 9 299
1930248N16150 1930 44 WP MM NOT_NAMED 1930-09-06 12:00:00 NR 17.5315 146.439 main 2047 2005 __________P___ -1 17.5315 146.439 7 9 300
1930248N16150 1930 44 WP MM NOT_NAMED 1930-09-06 15:00:00 NR 17.7535 146.053 main 2005 1972 __________P___ -1 17.7535 146.053 7 9 304
1930248N16150 1930 44 WP MM NOT_NAMED 1930-09-06 18:00:00 NR 18.0246 145.678 main 1972 1918 __________P___ -1 18.0246 145.678 7 9 311
1930248N16150 1930 44 WP MM NOT_NAMED 1930-09-06 21:00:00 NR 18.3665 145.317 main 1918 1904 __________P___ -1 18.3665 145.317 7 10 316
1930248N16150 1930 44 WP MM NOT_NAMED 1930-09-06 22:00:00 NR 18.5000 145.200 main 1904 1864 __________O___ -1 18.5000 145.200 7 11 321
1930248N16150 1930 44 WP MM NOT_NAMED 1930-09-07 00:00:00 NR 18.8013 144.941 main 1864 1800 __________P___ -1 18.8013 144.941 7 12 324
1930248N16150 1930 44 WP MM NOT_NAMED 1930-09-07 03:00:00 NR 19.3227 144.565 main 1800 1721 __________P___ -1 19.3227 144.565 7 13 329
1930248N16150 1930 44 WP MM NOT_NAMED 1930-09-07 06:00:00 NR 19.8993 144.229 main 1721 1652 __________P___ -1 19.8993 144.229 7 13 334
1930248N16150 1930 44 WP MM NOT_NAMED 1930-09-07 09:00:00 NR 20.4999 143.966 main 1652 1627 __________P___ -1 20.4999 143.966 7 13 339
1930248N16150 1930 44 WP MM NOT_NAMED 1930-09-07 10:00:00 NR 20.7000 143.900 main 1627 1583 __________O___ -1 20.7000 143.900 7 12 342
1930248N16150 1930 44 WP MM NOT_NAMED 1930-09-07 12:00:00 NR 21.0667 143.771 main 1583 1528 __________P___ -1 21.0667 143.771 7 11 346
1930248N16150 1930 44 WP MM NOT_NAMED 1930-09-07 15:00:00 NR 21.6229 143.652 main 1528 1461 __________P___ -1 21.6229 143.652 7 11 354
1930248N16150 1930 44 WP MM NOT_NAMED 1930-09-07 18:00:00 NR 22.1953 143.636 main 1461 1399 __________P___ -1 22.1953 143.636 7 12 4
1930248N16150 1930 44 WP MM NOT_NAMED 1930-09-07 21:00:00 NR 22.7934 143.737 main 1399 1380 __________P___ -1 22.7934 143.737 7 12 11
1930248N16150 1930 44 WP MM NOT_NAMED 1930-09-07 22:00:00 NR 23.0000 143.800 main 1380 1340 __________O___ -1 23.0000 143.800 7 14 17
1930248N16150 1930 44 WP MM NOT_NAMED 1930-09-08 00:00:00 NR 23.4377 143.953 main 1343 1277 __________P___ -1 23.4377 143.953 7 15 22
1930248N16150 1930 44 WP MM NOT_NAMED 1930-09-08 03:00:00 NR 24.1197 144.290 main 1277 1217 __________P___ -1 24.1197 144.290 7 15 27
1930248N16150 1930 44 WP MM NOT_NAMED 1930-09-08 06:00:00 NR 24.8099 144.726 main 1217 1165 __________P___ -1 24.8099 144.726 7 16 32
1930248N16150 1930 44 WP MM NOT_NAMED 1930-09-08 09:00:00 NR 25.4834 145.226 main 1165 1153 __________P___ -1 25.4834 145.226 7 16 34
1930248N16150 1930 44 WP MM NOT_NAMED 1930-09-08 10:00:00 NR 25.7000 145.400 main 1153 1127 __________O___ -1 25.7000 145.400 7 16 37
1930248N16150 1930 44 WP MM NOT_NAMED 1930-09-08 12:00:00 NR 26.1176 145.754 main 1131 1099 __________P___ -1 26.1176 145.754 7 16 39
1930248N16150 1930 44 WP MM NOT_NAMED 1930-09-08 15:00:00 NR 26.7108 146.296 main 1099 1069 __________P___ -1 26.7108 146.296 7 15 40
1930248N16150 1930 44 WP MM NOT_NAMED 1930-09-08 18:00:00 NR 27.2744 146.849 main 1069 1051 __________P___ -1 27.2744 146.849 7 15 42
1930248N16150 1930 44 WP MM NOT_NAMED 1930-09-08 21:00:00 NR 27.8201 147.411 main 1057 1048 __________P___ -1 27.8201 147.411 7 15 42
1930248N16150 1930 44 WP MM NOT_NAMED 1930-09-08 22:00:00 NR 28.0000 147.600 main 1052 __________O___ -1 28.0000 147.600 7 15 43

デジタル台風データ・検索

IBTrACS Databaseについて

本データベースは、米国NOAAが公開する1842年以降の世界の熱帯低気圧のベストトラックデータアーカイブInternational Best Track Archive for Climate Stewardship (IBTrACS)を、ウェブで閲覧しやすい形式に変換したものです。

最終更新日:2021-12-08